Salisbury, Vermont
Current Conditions -  °F | °C
As of 5:15 AM on Monday 26 Jan 2015 (Local Time) from K6B0 Reporting Station
Clear Clear  
Wind Chill: -1°   Ceiling: Unl
Heat Index: -1°   Visibility: 10mi
Dew Point: -7°   Wind: 0mph
Humidity: 77%   Direction: NA
Pressure: 30.1"   Gusts: NA
Location:  43.9°N, 73.1°W
Report Text: K6B0 261015Z AUTO 00000KT 10SM CLR M18/M21 A3010 RMK AO2 T11831214
Loading
Personal Weather Stations






























Interactive Weather Map New forecast layout! Learn more

10-Day Weather Forecast

Advertisements
Track Severe Weather on mobile